Hauptseite
METAR-TAF:

METAR-TAF

Flughäfen :

Inverness, Schottland

Flughafen Inverness

Breite: 57-32N, Länge: 004-03W, Höhe: 9 m

Beobachtung

Neuester Wetterbericht von vor 17 Minuten, um 06:50 UTC
Wind 8 kt aus West/Südwest
Temperatur -3°C
Luftfeuchtigkeit 93%
Luftdruck 997 hPa
Sichtweite 10 km oder mehr
Leicht bewölkt in der Höhe von 1500 ft

METAR: EGPE 200650Z 24008KT 9999 FEW015 M03/M04 Q0997

Zeit: 07:07 (07:07 UTC)

Prognose

Neuester Wetterbericht von vor 2 Stunden und 10 Minuten, um 04:57 UTC
Gültige Prognose vom 20 um 06 UTC bis 20 um 15 UTC
Wind 9 kt aus West/Südwest
Sichtweite 10 km oder mehr
Leicht bewölkt in der Höhe von 900 ft
Wahrscheinlichkeit 30% :
Zeitweise
vom 20 um 06 UTC bis 20 um 10 UTC
Durchbrochene Bewölkung in der Höhe von 900 ft

TAF: EGPE 200457Z 2006/2015 24009KT 9999 FEW009 PROB30 TEMPO 2006/2010 BKN009

Wetterbeobachtungen und Prognosen von mehr als 4000 Flughäfen (METAR und TAF Bericht).

Die verfügbaren Stationen werden durch gelbe und rote Markierungen auf der Karte dargestellt.

Führen Sie die Maus auf sie, um den Namen der Station zu sehen.

Darauf klicken, um die Beobachtung von Wetterbeobachtungen und Prognosen zu sehen.

Um die Karte zu ändern : klicken Sie auf den grünen Tasten mit einem schwarzen Kreuz Zum Vergrößern, auf den grünen Button mit einem Gedankenstrich zu verkleinern, oder auf die grünen Pfeile für benachbarte Karten.


METAR-TAF: